MSC Vigo — A8ZV8 — position and weather

sailwx.info

Track history (hours):
 
Tides and Currents Weather Stations Pressure Air Temp Water Temp Dewpoint Dewpoint Depression Visibility Wind Speed Wind Dir Waves Ship Positions

MSC Vigo

Last reported at 2014-Nov-25 21:21 UTC. Time now 2014-Nov-26 05:25 UTC.
Position N 38°22' E 013°52'.

Length 270 m; draft 10.9 m.

Type: Ship (hazmat cat A). MMSI: 636092276.

Date/timePositionNaut miles runAvg speedWind from/ knotsBaromVisibWave heightAir tempDewpointWater temp
2014-Nov-25 21:21N 38°22' E 013°52'1215.0
2014-Nov-25 20:33N 38°23' E 013°37'1514.9
2014-Nov-25 19:33N 38°24' E 013°18'1514.7
2014-Nov-25 18:33N 38°25' E 012°59'3215.8
2014-Nov-25 16:33N 38°27' E 012°19'11716.2
2014-Nov-25 09:19N 38°35' E 009°49'618.1
2014-Nov-25 09:00N 38°36' E 009°42'512.1 330 / 51020.0 5.4 20.518.222.0
2014-Nov-25 08:33N 38°36' E 009°35'1515.1
2014-Nov-25 07:33N 38°37' E 009°16'1919.2
2014-Nov-25 06:33N 38°38' E 008°51'1717.4
2014-Nov-25 05:33N 38°39' E 008°29'1817.5
2014-Nov-25 04:32N 38°41' E 008°06'18517.7
2014-Nov-24 18:05N 38°54' E 004°10'1018.4
2014-Nov-24 17:33N 38°54' E 003°57'1716.7
2014-Nov-24 16:33N 38°56' E 003°36'1515.4
2014-Nov-24 15:33N 38°57' E 003°16'1515.1
2014-Nov-24 14:33N 38°58' E 002°57'1414.6
2014-Nov-24 13:33N 39°01' E 002°39'1414.5
2014-Nov-24 12:33N 39°06' E 002°21'1514.5
2014-Nov-24 11:33N 39°10' E 002°03'1514.8
2014-Nov-24 10:33N 39°15' E 001°45'1514.9
2014-Nov-24 09:33N 39°18' E 001°26'1515.0
2014-Nov-24 08:33N 39°19' E 001°07'6014.8
2014-Nov-24 04:30N 39°25' W 000°10'7 7.0
2014-Nov-24 03:29N 39°26' W 000°19'0 0.0
2014-Nov-24 02:32N 39°26' W 000°19'0 0.0
2014-Nov-24 01:32N 39°26' W 000°19'0 0.0
2014-Nov-24 00:32N 39°26' W 000°19'0 0.0
2014-Nov-23 23:32N 39°26' W 000°19'0 0.0
2014-Nov-23 22:17N 39°26' W 000°19'0 0.0
2014-Nov-23 21:26N 39°26' W 000°19'0 0.0
2014-Nov-23 20:32N 39°26' W 000°19'0 0.0
2014-Nov-23 19:32N 39°26' W 000°19'0 0.0
2014-Nov-23 18:29N 39°26' W 000°19'0 0.0
2014-Nov-23 17:32N 39°26' W 000°19'0 0.0
2014-Nov-23 16:33N 39°26' W 000°19'3 2.7
2014-Nov-23 15:33N 39°25' W 000°17'1 0.7
2014-Nov-23 14:31N 39°24' W 000°17'0 0.0
2014-Nov-23 13:25N 39°24' W 000°17'0 0.0
2014-Nov-23 12:31N 39°24' W 000°17'0 0.0
2014-Nov-23 11:31N 39°24' W 000°17'0 0.0
2014-Nov-23 10:31N 39°24' W 000°17'0 0.0
2014-Nov-23 09:31N 39°24' W 000°17'0 0.0
2014-Nov-23 08:25N 39°24' W 000°17'0 0.1
2014-Nov-23 07:31N 39°24' W 000°17'0 0.0
2014-Nov-23 06:31N 39°24' W 000°17'0 0.1
2014-Nov-23 05:31N 39°24' W 000°16'8510.7
2014-Nov-22 21:33N 37°59' W 000°09'1413.8
2014-Nov-22 20:33N 37°47' W 000°18'1413.8
2014-Nov-22 19:33N 37°36' W 000°29'1313.4
2014-Nov-22 18:33N 37°27' W 000°41'1313.3
2014-Nov-22 17:34N 37°18' W 000°53'1413.6
2014-Nov-22 16:34N 37°09' W 001°05'1313.4
2014-Nov-22 15:33N 36°60' W 001°18'20413.6
2014-Nov-22 00:33N 35°59' W 005°20'  
Track history (hours):
 
Tides and Currents Weather Stations Pressure Air Temp Water Temp Dewpoint Dewpoint Depression Visibility Wind Speed Wind Dir Waves Ship Positions

MSC Vigo

Last reported at 2014-Nov-25 21:21 UTC. Time now 2014-Nov-26 05:25 UTC.
Position N 38°22' E 013°52'.

Length 270 m; draft 10.9 m.

Type: Ship (hazmat cat A). MMSI: 636092276.

Date/timePositionNaut miles runAvg speedWind from/ knotsBaromVisibWave heightAir tempDewpointWater temp
2014-Nov-25 21:21N 38°22' E 013°52'1215.0
2014-Nov-25 20:33N 38°23' E 013°37'1514.9
2014-Nov-25 19:33N 38°24' E 013°18'1514.7
2014-Nov-25 18:33N 38°25' E 012°59'3215.8
2014-Nov-25 16:33N 38°27' E 012°19'11716.2
2014-Nov-25 09:19N 38°35' E 009°49'618.1
2014-Nov-25 09:00N 38°36' E 009°42'512.1 330 / 51020.0 5.4 20.518.222.0
2014-Nov-25 08:33N 38°36' E 009°35'1515.1
2014-Nov-25 07:33N 38°37' E 009°16'1919.2
2014-Nov-25 06:33N 38°38' E 008°51'1717.4
2014-Nov-25 05:33N 38°39' E 008°29'1817.5
2014-Nov-25 04:32N 38°41' E 008°06'18517.7
2014-Nov-24 18:05N 38°54' E 004°10'1018.4
2014-Nov-24 17:33N 38°54' E 003°57'1716.7
2014-Nov-24 16:33N 38°56' E 003°36'1515.4
2014-Nov-24 15:33N 38°57' E 003°16'1515.1
2014-Nov-24 14:33N 38°58' E 002°57'1414.6
2014-Nov-24 13:33N 39°01' E 002°39'1414.5
2014-Nov-24 12:33N 39°06' E 002°21'1514.5
2014-Nov-24 11:33N 39°10' E 002°03'1514.8
2014-Nov-24 10:33N 39°15' E 001°45'1514.9
2014-Nov-24 09:33N 39°18' E 001°26'1515.0
2014-Nov-24 08:33N 39°19' E 001°07'6014.8
2014-Nov-24 04:30N 39°25' W 000°10'7 7.0
2014-Nov-24 03:29N 39°26' W 000°19'0 0.0
2014-Nov-24 02:32N 39°26' W 000°19'0 0.0
2014-Nov-24 01:32N 39°26' W 000°19'0 0.0
2014-Nov-24 00:32N 39°26' W 000°19'0 0.0
2014-Nov-23 23:32N 39°26' W 000°19'0 0.0
2014-Nov-23 22:17N 39°26' W 000°19'0 0.0
2014-Nov-23 21:26N 39°26' W 000°19'0 0.0
2014-Nov-23 20:32N 39°26' W 000°19'0 0.0
2014-Nov-23 19:32N 39°26' W 000°19'0 0.0
2014-Nov-23 18:29N 39°26' W 000°19'0 0.0
2014-Nov-23 17:32N 39°26' W 000°19'0 0.0
2014-Nov-23 16:33N 39°26' W 000°19'3 2.7
2014-Nov-23 15:33N 39°25' W 000°17'1 0.7
2014-Nov-23 14:31N 39°24' W 000°17'0 0.0
2014-Nov-23 13:25N 39°24' W 000°17'0 0.0
2014-Nov-23 12:31N 39°24' W 000°17'0 0.0
2014-Nov-23 11:31N 39°24' W 000°17'0 0.0
2014-Nov-23 10:31N 39°24' W 000°17'0 0.0
2014-Nov-23 09:31N 39°24' W 000°17'0 0.0
2014-Nov-23 08:25N 39°24' W 000°17'0 0.1
2014-Nov-23 07:31N 39°24' W 000°17'0 0.0
2014-Nov-23 06:31N 39°24' W 000°17'0 0.1
2014-Nov-23 05:31N 39°24' W 000°16'8510.7
2014-Nov-22 21:33N 37°59' W 000°09'1413.8
2014-Nov-22 20:33N 37°47' W 000°18'1413.8
2014-Nov-22 19:33N 37°36' W 000°29'1313.4
2014-Nov-22 18:33N 37°27' W 000°41'1313.3
2014-Nov-22 17:34N 37°18' W 000°53'1413.6
2014-Nov-22 16:34N 37°09' W 001°05'1313.4
2014-Nov-22 15:33N 36°60' W 001°18'20413.6
2014-Nov-22 00:33N 35°59' W 005°20'  

Dump ship's entire track history